Weather History for Lexington, NE

Change the Weather History Date:

Wednesday, January 11, 2012

  Actual Average Record
Temperature  
Mean Temperature 30 °F -  
Max Temperature 42 °F 37 °F 64 °F (2006)
Min Temperature 16 °F 13 °F -9 °F (2011)
Degree Days  
Heating Degree Days 36    
Moisture  
Dew Point 20 °F    
Average Humidity 65    
Maximum Humidity 81    
Minimum Humidity 41    
Precipitation  
Precipitation 0.00 in - - ()
Sea Level Pressure  
Sea Level Pressure 29.92 in    
Wind  
Wind Speed 20 mph (NNW)    
Max Wind Speed 37 mph    
Max Gust Speed 48 mph    
Visibility 10 miles    
Events      
Averages and records for this station are not official NWS values.
T = Trace of Precipitation, MM = Missing Value Source: NWS Daily Summary

Daily Weather History Graph

Daily Weather History Graph

Search for Another Location

Airport:

Trip Planner

Search our weather history database for the weather conditions in past years. The results will help you decide how hot, cold, wet, or windy it might be!

Date:

Astronomy

Jan. 11, 2012 Rise Set
Actual Time 8:02 AM CST 5:31 PM CST
Civil Twilight 7:32 AM CST 6:01 PM CST
Nautical Twilight 6:58 AM CST 6:35 PM CST
Astronomical Twilight 6:25 AM CST 7:08 PM CST
Moon 8:33 PM CST (1/11) 9:14 AM CST (1/11)
Length of Visible Light 10h 29m
Length of Day
9h 28m
Waning Gibbous, 93% of the Moon is Illuminated
Jan 11
Waning Gibbous
Jan 16
Last Quarter
Jan 23
New
Jan 30
First Quarter
Feb 7
Full

Hourly Weather History & Observations

Time (CST) Temp. Windchill Dew Point Humidity Pressure Visibility Wind Dir Wind Speed Gust Speed Precip Events Conditions
12:15 AM 28.8 °F - 23.5 °F 81% 29.67 in 10.0 mi Calm Calm - N/A   Clear
12:35 AM 28.0 °F 21.7 °F 23.0 °F 81% 29.66 in 10.0 mi West 5.8 mph - N/A   Clear
12:55 AM 30.6 °F 21.8 °F 25.2 °F 80% 29.66 in 10.0 mi West 10.4 mph - N/A   Clear
1:15 AM 32.0 °F 24.8 °F 25.9 °F 78% 29.66 in 10.0 mi WNW 8.1 mph - N/A   Clear
1:35 AM 35.2 °F 25.8 °F 26.4 °F 70% 29.67 in 10.0 mi WNW 15.0 mph 20.7 mph N/A   Clear
1:55 AM 38.3 °F 29.3 °F 26.6 °F 63% 29.68 in 10.0 mi WNW 16.1 mph 23.0 mph N/A   Clear
2:15 AM 38.3 °F 28.7 °F 26.6 °F 63% 29.68 in 10.0 mi NW 18.4 mph - N/A   Clear
2:35 AM 38.7 °F 29.1 °F 27.9 °F 65% 29.69 in 10.0 mi NW 18.4 mph - N/A   Clear
2:55 AM 42.3 °F 33.3 °F 30.2 °F 62% 29.70 in 10.0 mi NNW 20.7 mph 28.8 mph N/A   Clear
3:15 AM 42.4 °F 33.1 °F 31.5 °F 65% 29.70 in 10.0 mi NNW 23.0 mph 31.1 mph N/A   Clear
3:35 AM 42.1 °F 32.3 °F 32.0 °F 67% 29.70 in 10.0 mi NNW 24.2 mph 31.1 mph N/A   Clear
3:55 AM 41.9 °F 32.3 °F 32.0 °F 68% 29.71 in 10.0 mi NNW 23.0 mph 29.9 mph N/A   Clear
4:15 AM 41.9 °F 32.1 °F 32.5 °F 69% 29.73 in 10.0 mi NNW 24.2 mph 35.7 mph N/A   Clear
4:35 AM 40.6 °F 29.6 °F 32.2 °F 72% 29.74 in 10.0 mi NNW 28.8 mph 39.1 mph N/A   Clear
4:55 AM 39.4 °F 28.3 °F 32.5 °F 76% 29.74 in 10.0 mi NNW 26.5 mph 34.5 mph N/A   Clear
5:15 AM 39.6 °F 28.7 °F 32.7 °F 76% 29.76 in 10.0 mi NNW 25.3 mph 43.7 mph N/A   Mostly Cloudy
5:35 AM 36.5 °F 23.1 °F 30.2 °F 78% 29.77 in 10.0 mi North 33.4 mph 48.3 mph N/A   Overcast
5:55 AM 35.1 °F 21.4 °F 28.9 °F 78% 29.78 in 10.0 mi North 32.2 mph 36.8 mph N/A   Mostly Cloudy
6:15 AM 35.1 °F 21.2 °F 28.2 °F 76% 29.81 in 10.0 mi North 33.4 mph 44.9 mph N/A   Mostly Cloudy
6:35 AM 34.7 °F 21.5 °F 27.5 °F 75% 29.82 in 10.0 mi North 28.8 mph 44.9 mph N/A   Overcast
6:55 AM 34.7 °F 22.5 °F 27.3 °F 74% 29.84 in 10.0 mi North 24.2 mph 34.5 mph N/A   Overcast
7:15 AM 34.7 °F 22.0 °F 27.3 °F 74% 29.86 in 10.0 mi NNW 26.5 mph 39.1 mph N/A   Overcast
7:35 AM 34.2 °F 22.6 °F 26.6 °F 74% 29.88 in 10.0 mi NNW 20.7 mph 35.7 mph N/A   Overcast
7:55 AM 33.8 °F 20.1 °F 26.2 °F 74% 29.90 in 10.0 mi North 29.9 mph 41.4 mph N/A   Overcast
8:15 AM 33.4 °F 20.8 °F 26.4 °F 75% 29.90 in 10.0 mi North 24.2 mph 38.0 mph N/A   Overcast
8:55 AM 32.9 °F 20.7 °F 25.3 °F 74% 29.92 in 10.0 mi North 21.9 mph 35.7 mph N/A   Overcast
9:15 AM 32.4 °F 18.6 °F 25.5 °F 76% 29.95 in 10.0 mi North 27.6 mph 39.1 mph N/A   Overcast
9:35 AM 32.2 °F 18.9 °F 26.2 °F 79% 29.96 in 10.0 mi North 25.3 mph 32.2 mph N/A   Overcast
9:55 AM 32.0 °F 18.9 °F 26.1 °F 79% 29.97 in 10.0 mi North 24.2 mph 33.4 mph N/A   Overcast
10:15 AM 32.2 °F 17.2 °F 23.9 °F 72% 29.97 in 10.0 mi North 33.4 mph 39.1 mph N/A   Overcast
10:35 AM 32.9 °F 19.1 °F 23.2 °F 67% 29.99 in 10.0 mi North 28.8 mph 38.0 mph N/A   Overcast
10:55 AM 33.1 °F 18.7 °F 23.0 °F 66% 30.00 in 10.0 mi North 32.2 mph 42.6 mph N/A   Overcast
11:15 AM 33.4 °F 20.1 °F 23.4 °F 67% 29.99 in 10.0 mi North 27.6 mph 39.1 mph N/A   Overcast
11:35 AM 32.9 °F 19.3 °F 25.0 °F 73% 29.99 in 10.0 mi North 27.6 mph 36.8 mph N/A   Overcast
11:55 AM 31.6 °F 17.4 °F 25.9 °F 79% 29.98 in 5.0 mi NNW 28.8 mph 41.4 mph N/A   Overcast
12:15 PM 31.3 °F 16.7 °F 24.8 °F 77% 30.00 in 10.0 mi NNW 29.9 mph 40.3 mph N/A   Overcast
12:35 PM 31.5 °F 15.6 °F 21.4 °F 66% 30.01 in 10.0 mi North 36.8 mph 44.9 mph N/A   Overcast
12:55 PM 30.6 °F 15.7 °F 20.3 °F 66% 30.00 in 10.0 mi North 29.9 mph 43.7 mph N/A   Overcast
1:15 PM 30.7 °F 15.2 °F 19.0 °F 62% 30.01 in 10.0 mi North 33.4 mph 41.4 mph N/A   Overcast
1:35 PM 30.6 °F 14.8 °F 18.5 °F 61% 30.01 in 10.0 mi North 34.5 mph 41.4 mph N/A   Overcast
1:55 PM 30.0 °F 14.9 °F 19.2 °F 64% 30.02 in 10.0 mi NNW 29.9 mph 36.8 mph N/A   Overcast
2:15 PM 28.8 °F 13.5 °F 18.5 °F 66% 30.03 in 10.0 mi NNW 28.8 mph 41.4 mph N/A   Overcast
2:35 PM 28.4 °F 13.0 °F 17.1 °F 63% 30.05 in 10.0 mi NNW 28.8 mph 39.1 mph N/A   Overcast
2:55 PM 27.3 °F 11.0 °F 13.3 °F 56% 30.06 in 10.0 mi NNW 31.1 mph 41.4 mph N/A   Overcast
3:15 PM 27.1 °F 11.0 °F 12.2 °F 53% 30.06 in 10.0 mi NNW 29.9 mph 41.4 mph N/A   Overcast
3:35 PM 27.0 °F 11.3 °F 11.5 °F 52% 30.06 in 10.0 mi North 27.6 mph 33.4 mph N/A   Overcast
3:55 PM 27.7 °F 12.6 °F 11.8 °F 51% 30.07 in 10.0 mi NNW 26.5 mph 34.5 mph N/A   Mostly Cloudy
4:15 PM 27.3 °F 11.3 °F 10.6 °F 49% 30.08 in 10.0 mi NNW 29.9 mph 35.7 mph N/A   Mostly Cloudy
4:35 PM 27.1 °F 12.1 °F 9.3 °F 47% 30.08 in 10.0 mi NNW 25.3 mph 33.4 mph N/A   Scattered Clouds
4:55 PM 26.2 °F 10.1 °F 8.6 °F 47% 30.09 in 10.0 mi NNW 28.8 mph 40.3 mph N/A   Clear
5:15 PM 25.5 °F 10.9 °F 9.3 °F 50% 30.09 in 10.0 mi NNW 21.9 mph 28.8 mph N/A   Clear
5:35 PM 25.2 °F 10.1 °F 7.2 °F 46% 30.10 in 10.0 mi NNW 23.0 mph 35.7 mph N/A   Mostly Cloudy
6:15 PM 22.6 °F 6.4 °F 1.8 °F 41% 30.10 in 10.0 mi NNW 24.2 mph 32.2 mph N/A   Scattered Clouds
6:35 PM 21.7 °F 5.6 °F 2.7 °F 44% 30.10 in 10.0 mi NNW 23.0 mph 29.9 mph N/A   Scattered Clouds
6:55 PM 20.8 °F 3.4 °F 3.6 °F 47% 30.10 in 10.0 mi NNW 26.5 mph 33.4 mph N/A   Clear
7:15 PM 20.3 °F 4.4 °F 3.2 °F 48% 30.11 in 10.0 mi NNW 20.7 mph 31.1 mph N/A   Clear
7:35 PM 19.2 °F 4.3 °F 3.9 °F 51% 30.11 in 10.0 mi NNW 17.3 mph 25.3 mph N/A   Clear
7:55 PM 18.5 °F 2.9 °F 3.9 °F 53% 30.11 in 10.0 mi NNW 18.4 mph - N/A   Clear
8:15 PM 18.1 °F 2.9 °F 3.7 °F 53% 30.11 in 10.0 mi NNW 17.3 mph 27.6 mph N/A   Clear
8:35 PM 17.6 °F 1.7 °F 3.6 °F 54% 30.11 in 10.0 mi NW 18.4 mph 24.2 mph N/A   Clear
8:55 PM 16.9 °F 1.2 °F 3.4 °F 55% 30.11 in 10.0 mi NW 17.3 mph 20.7 mph N/A   Clear
9:15 PM 16.5 °F 1.8 °F 3.2 °F 56% 30.11 in 10.0 mi NW 15.0 mph - N/A   Clear
9:35 PM 15.6 °F 1.2 °F 3.2 °F 58% 30.10 in 10.0 mi NW 13.8 mph - N/A   Clear
9:55 PM 16.3 °F 1.0 °F 2.1 °F 54% 30.10 in 10.0 mi NNW 16.1 mph - N/A   Mostly Cloudy
10:15 PM 16.3 °F 2.7 °F 1.9 °F 53% 30.10 in 10.0 mi NW 12.7 mph - N/A   Overcast
10:35 PM 17.1 °F 0.6 °F -0.0 °F 47% 30.10 in 10.0 mi NNW 19.6 mph 28.8 mph N/A   Overcast
10:55 PM 17.1 °F 1.5 °F 0.3 °F 48% 30.10 in 10.0 mi NNW 17.3 mph 24.2 mph N/A   Overcast
11:15 PM 16.7 °F 2.6 °F 1.0 °F 50% 30.09 in 10.0 mi NW 13.8 mph - N/A   Overcast
11:35 PM 16.3 °F 2.1 °F 1.4 °F 52% 30.09 in 10.0 mi WNW 13.8 mph 19.6 mph N/A   Overcast
11:55 PM 16.5 °F 2.4 °F 1.9 °F 53% 30.09 in 10.0 mi NW 13.8 mph 21.9 mph N/A   Overcast